Time;durP1;ratioP1;P1;durP2;ratioP2;P2;SDS_P1;SDS_P2;PMS_P1;PMS_P2;Temp;Humidity;BMP_temperature;BMP_pressure;BME280_temperature;BME280_humidity;BME280_pressure;Samples;Min_cycle;Max_cycle;Signal;HPM_P1;HPM_P2
2023/05/01 00:01:05;;;;;;;10.65;8.00;;;6.90;99.90;;;;;;4958558;28;20078;-82
2023/05/01 00:03:32;;;;;;;9.18;8.27;;;6.90;99.90;;;;;;4940261;28;20016;-82
2023/05/01 00:06:04;;;;;;;11.23;8.00;;;7.00;99.90;;;;;;4957410;28;20051;-82
2023/05/01 00:08:31;;;;;;;9.45;7.82;;;7.10;99.90;;;;;;4960756;28;20246;-82
2023/05/01 00:11:01;;;;;;;10.65;8.07;;;7.10;99.90;;;;;;4961766;28;20118;-81
2023/05/01 00:13:27;;;;;;;8.13;7.20;;;7.10;99.90;;;;;;4975401;28;20119;-82
2023/05/01 00:15:52;;;;;;;10.23;8.15;;;7.10;99.90;;;;;;4973548;28;20054;-81
2023/05/01 00:18:18;;;;;;;12.48;8.45;;;7.10;99.90;;;;;;4979262;28;20019;-81
2023/05/01 00:20:44;;;;;;;9.43;7.13;;;7.10;99.90;;;;;;4983841;28;20102;-82
2023/05/01 00:23:11;;;;;;;9.02;6.82;;;7.20;99.90;;;;;;4974012;28;20105;-82
2023/05/01 00:25:38;;;;;;;8.93;7.63;;;7.20;99.90;;;;;;4960520;28;20027;-82
2023/05/01 00:28:05;;;;;;;9.97;8.07;;;7.20;99.90;;;;;;4981010;28;20034;-82
2023/05/01 00:30:34;;;;;;;9.27;8.02;;;7.20;99.90;;;;;;4974854;28;20031;-81
2023/05/01 00:33:00;;;;;;;8.80;7.05;;;7.20;99.90;;;;;;4978846;28;20022;-81
2023/05/01 00:35:28;;;;;;;11.48;7.68;;;7.30;99.90;;;;;;4983153;28;20086;-79
2023/05/01 00:37:54;;;;;;;10.73;7.72;;;7.30;99.90;;;;;;4984593;28;20543;-80
2023/05/01 00:40:20;;;;;;;7.60;6.72;;;7.40;99.90;;;;;;4986749;28;20030;-82
2023/05/01 00:42:45;;;;;;;7.72;6.47;;;7.40;99.90;;;;;;4967619;28;20027;-81
2023/05/01 00:45:13;;;;;;;8.52;7.30;;;7.40;99.90;;;;;;4975806;28;20030;-81
2023/05/01 00:47:40;;;;;;;7.00;6.22;;;7.50;99.90;;;;;;4941518;28;20022;-82
2023/05/01 00:50:06;;;;;;;6.43;5.82;;;7.40;99.90;;;;;;4950704;28;20121;-81
2023/05/01 00:52:33;;;;;;;7.82;5.68;;;7.40;99.90;;;;;;4957803;28;20143;-82
2023/05/01 00:54:59;;;;;;;7.22;5.10;;;7.40;99.90;;;;;;4956870;28;20049;-82
2023/05/01 00:57:25;;;;;;;5.25;4.75;;;7.50;99.90;;;;;;4963502;28;20020;-82
2023/05/01 00:59:51;;;;;;;6.13;5.13;;;7.40;99.90;;;;;;4977086;28;20038;-82
2023/05/01 01:02:17;;;;;;;6.78;6.07;;;7.40;99.90;;;;;;4978242;28;20057;-80
2023/05/01 01:04:47;;;;;;;8.95;5.97;;;7.50;99.90;;;;;;4964361;28;20047;-82
2023/05/01 01:07:43;;;;;;;6.95;6.25;;;7.50;99.90;;;;;;4976359;28;20403;-82
2023/05/01 01:10:24;;;;;;;6.25;5.65;;;7.50;99.90;;;;;;4929937;28;20043;-79
2023/05/01 01:13:27;;;;;;;6.93;5.00;;;7.50;99.90;;;;;;4961067;28;20018;-80
2023/05/01 01:16:17;;;;;;;4.30;3.90;;;7.50;99.90;;;;;;4967861;28;20048;-82
2023/05/01 01:19:00;;;;;;;5.20;3.92;;;7.50;99.90;;;;;;4943262;28;20429;-80
2023/05/01 01:21:37;;;;;;;7.05;4.47;;;7.50;99.90;;;;;;4976260;28;20476;-81
2023/05/01 01:24:33;;;;;;;6.65;3.97;;;7.60;99.90;;;;;;4973265;28;20022;-81
2023/05/01 01:27:26;;;;;;;5.78;4.57;;;7.60;99.90;;;;;;4949021;28;20058;-81
2023/05/01 01:30:10;;;;;;;7.03;4.63;;;7.60;99.90;;;;;;4968559;28;20027;-79
2023/05/01 01:33:09;;;;;;;4.18;3.33;;;7.60;99.90;;;;;;4969600;28;20027;-81
2023/05/01 01:35:38;;;;;;;4.78;3.45;;;7.50;99.90;;;;;;4970568;28;20029;-80
2023/05/01 01:38:17;;;;;;;4.28;3.75;;;7.40;99.90;;;;;;4963525;28;20027;-81
2023/05/01 01:40:55;;;;;;;4.43;3.47;;;7.40;99.90;;;;;;4973943;28;20018;-80
2023/05/01 01:43:23;;;;;;;4.38;3.78;;;7.40;99.90;;;;;;4971326;28;20029;-82
2023/05/01 01:45:56;;;;;;;4.93;3.95;;;7.50;99.90;;;;;;4971343;28;20104;-81
2023/05/01 01:48:29;;;;;;;5.32;4.53;;;7.50;99.90;;;;;;4973231;28;20033;-80
2023/05/01 01:50:58;;;;;;;4.82;4.15;;;7.50;99.90;;;;;;4973246;28;20504;-80
2023/05/01 01:53:25;;;;;;;5.90;4.38;;;7.50;99.90;;;;;;4967241;28;20053;-81
2023/05/01 01:55:54;;;;;;;7.50;5.32;;;7.50;99.90;;;;;;4965521;28;20099;-80
2023/05/01 01:58:25;;;;;;;4.65;3.88;;;7.50;99.90;;;;;;4951456;28;20361;-82
2023/05/01 02:00:54;;;;;;;4.38;3.85;;;7.40;99.90;;;;;;4956731;28;20031;-82
2023/05/01 02:03:21;;;;;;;5.70;3.90;;;7.40;99.90;;;;;;4958904;28;20086;-81
2023/05/01 02:05:51;;;;;;;10.50;4.00;;;7.50;99.90;;;;;;4960269;28;20527;-81
2023/05/01 02:08:18;;;;;;;8.07;4.47;;;7.40;99.90;;;;;;4966486;28;20035;-82
2023/05/01 02:10:46;;;;;;;6.03;5.50;;;7.40;99.90;;;;;;4977292;28;20027;-82
2023/05/01 02:13:13;;;;;;;6.47;5.88;;;7.40;99.90;;;;;;4957021;28;20034;-82
2023/05/01 02:15:40;;;;;;;7.82;6.10;;;7.50;99.90;;;;;;4969003;28;20050;-81
2023/05/01 02:18:07;;;;;;;6.28;5.65;;;7.50;99.90;;;;;;4954703;28;20031;-84
2023/05/01 02:20:33;;;;;;;;;;;7.50;99.90;;;;;;4960794;28;20059;-82
2023/05/01 02:23:00;;;;;;;7.22;6.53;;;7.40;99.90;;;;;;4968355;28;20319;-83
2023/05/01 02:25:30;;;;;;;4.55;3.85;;;7.50;99.90;;;;;;4962344;28;20488;-83
2023/05/01 02:28:00;;;;;;;7.15;4.55;;;7.50;99.90;;;;;;4987144;28;20034;-83
2023/05/01 02:30:26;;;;;;;4.25;3.78;;;7.40;99.90;;;;;;4963271;28;20063;-81
2023/05/01 02:32:52;;;;;;;5.35;4.32;;;7.50;99.90;;;;;;4966736;28;20027;-81
2023/05/01 02:35:18;;;;;;;4.18;3.78;;;7.50;99.90;;;;;;4972124;28;20027;-81
2023/05/01 02:37:44;;;;;;;6.07;4.25;;;7.50;99.90;;;;;;4952825;28;20153;-81
2023/05/01 02:40:14;;;;;;;4.97;4.43;;;7.50;99.90;;;;;;4966761;28;20030;-81
2023/05/01 02:42:44;;;;;;;6.43;4.55;;;7.60;99.90;;;;;;4965471;28;20078;-81
2023/05/01 02:45:18;;;;;;;6.38;4.43;;;7.70;99.90;;;;;;4951139;28;20085;-81
2023/05/01 02:47:47;;;;;;;6.07;4.82;;;7.80;99.90;;;;;;4971294;28;20077;-80
2023/05/01 02:50:14;;;;;;;4.82;4.43;;;7.80;99.90;;;;;;4969299;28;20114;-81
2023/05/01 02:52:42;;;;;;;5.15;4.65;;;7.90;99.90;;;;;;4959006;28;20026;-81
2023/05/01 02:55:08;;;;;;;6.15;4.35;;;7.80;99.90;;;;;;4942176;28;20019;-82
2023/05/01 02:57:34;;;;;;;4.97;4.53;;;7.80;99.90;;;;;;4959622;28;20405;-82
2023/05/01 03:00:00;;;;;;;6.10;4.55;;;7.80;99.90;;;;;;4967492;28;20046;-80
2023/05/01 03:02:26;;;;;;;4.35;3.92;;;7.90;99.90;;;;;;4969902;28;20110;-83
2023/05/01 03:04:52;;;;;;;4.97;4.40;;;7.80;99.90;;;;;;4957010;28;20468;-82
2023/05/01 03:07:21;;;;;;;4.15;3.15;;;7.80;99.90;;;;;;4954343;28;20043;-82
2023/05/01 03:09:47;;;;;;;3.83;3.10;;;7.90;99.90;;;;;;4956647;28;20496;-81
2023/05/01 03:12:13;;;;;;;6.65;3.88;;;7.90;99.90;;;;;;4967178;28;20037;-81
2023/05/01 03:14:39;;;;;;;5.22;3.83;;;8.00;99.90;;;;;;4974290;28;20042;-82
2023/05/01 03:17:05;;;;;;;4.32;3.67;;;8.10;99.90;;;;;;4983491;28;20023;-82
2023/05/01 03:19:31;;;;;;;4.43;4.03;;;8.20;99.90;;;;;;4971340;28;20019;-81
2023/05/01 03:21:56;;;;;;;4.05;3.63;;;8.20;99.90;;;;;;4966669;28;20079;-80
2023/05/01 03:24:23;;;;;;;4.22;3.42;;;8.20;99.90;;;;;;4967376;28;20031;-80
2023/05/01 03:26:49;;;;;;;5.70;3.85;;;8.20;99.90;;;;;;4963711;28;20027;-82
2023/05/01 03:29:15;;;;;;;4.15;3.72;;;8.30;99.90;;;;;;4959679;28;20031;-81
2023/05/01 03:31:40;;;;;;;4.38;3.85;;;8.40;99.90;;;;;;4962704;28;20101;-81
2023/05/01 03:34:06;;;;;;;5.03;3.38;;;8.50;99.90;;;;;;4968329;28;20023;-80
2023/05/01 03:36:32;;;;;;;6.10;3.97;;;8.50;99.90;;;;;;4969633;28;20103;-81
2023/05/01 03:38:58;;;;;;;5.20;3.75;;;8.70;99.90;;;;;;4964232;28;20381;-79
2023/05/01 03:41:24;;;;;;;5.93;3.70;;;8.70;99.90;;;;;;4975821;28;20031;-81
2023/05/01 03:43:50;;;;;;;3.83;3.25;;;8.70;99.90;;;;;;4974021;28;20480;-80
2023/05/01 03:46:17;;;;;;;4.45;3.67;;;8.70;99.90;;;;;;4976438;28;20057;-81
2023/05/01 03:48:43;;;;;;;6.95;4.28;;;8.70;99.90;;;;;;4977411;28;20035;-81
2023/05/01 03:51:08;;;;;;;7.05;3.80;;;8.70;99.90;;;;;;4980548;28;20038;-81
2023/05/01 03:53:35;;;;;;;4.15;3.42;;;8.70;99.90;;;;;;4969169;28;20409;-82
2023/05/01 03:56:03;;;;;;;3.83;3.40;;;8.70;99.90;;;;;;4961512;28;20379;-80
2023/05/01 03:58:28;;;;;;;4.85;3.38;;;8.70;99.90;;;;;;4960748;28;20039;-81
2023/05/01 04:00:57;;;;;;;4.28;3.40;;;8.70;99.90;;;;;;4967494;28;20031;-80
2023/05/01 04:03:23;;;;;;;4.65;3.35;;;8.70;99.90;;;;;;4967851;28;20081;-81
2023/05/01 04:05:49;;;;;;;4.22;3.83;;;8.80;99.90;;;;;;4964805;28;20051;-81
2023/05/01 04:08:15;;;;;;;4.43;3.83;;;8.80;99.90;;;;;;4960312;28;20023;-82
2023/05/01 04:10:40;;;;;;;5.32;3.97;;;8.80;99.90;;;;;;4943473;28;20039;-83
2023/05/01 04:13:06;;;;;;;4.03;3.40;;;8.90;99.90;;;;;;4963221;28;20099;-81
2023/05/01 04:15:32;;;;;;;6.28;3.55;;;9.00;99.90;;;;;;4967755;28;20027;-81
2023/05/01 04:17:58;;;;;;;5.15;4.22;;;9.00;99.90;;;;;;4965727;28;20023;-80
2023/05/01 04:20:24;;;;;;;5.07;4.57;;;9.00;99.90;;;;;;4962746;28;20056;-81
2023/05/01 04:22:50;;;;;;;4.63;4.22;;;9.00;99.90;;;;;;4974932;28;20019;-81
2023/05/01 04:25:16;;;;;;;5.85;5.10;;;9.10;99.90;;;;;;4963016;28;20027;-82
2023/05/01 04:27:42;;;;;;;6.07;5.30;;;9.10;99.90;;;;;;4966851;28;20030;-82
2023/05/01 04:30:08;;;;;;;9.23;5.30;;;9.20;99.90;;;;;;4965546;28;20031;-81
2023/05/01 04:32:35;;;;;;;6.90;5.10;;;9.30;99.90;;;;;;4975972;28;20019;-82
2023/05/01 04:35:01;;;;;;;6.93;6.20;;;9.30;99.90;;;;;;4969475;28;20037;-83
2023/05/01 04:37:26;;;;;;;6.60;5.28;;;9.30;99.90;;;;;;4970025;28;20452;-81
2023/05/01 04:39:52;;;;;;;5.60;5.00;;;9.30;99.90;;;;;;4974649;28;20105;-81
2023/05/01 04:42:18;;;;;;;7.50;6.22;;;9.40;99.90;;;;;;4943382;28;20023;-81
2023/05/01 04:44:44;;;;;;;8.13;5.55;;;9.30;99.90;;;;;;4969483;28;20038;-80
2023/05/01 04:47:10;;;;;;;6.50;5.60;;;9.30;99.90;;;;;;4959633;28;20019;-79
2023/05/01 04:49:36;;;;;;;7.53;5.50;;;9.20;99.90;;;;;;4962688;28;20026;-80
2023/05/01 04:52:02;;;;;;;7.55;6.20;;;9.20;99.90;;;;;;4975155;28;20042;-83
2023/05/01 04:54:28;;;;;;;6.25;5.65;;;9.10;99.90;;;;;;4965319;28;20077;-81
2023/05/01 04:56:53;;;;;;;8.63;6.13;;;9.10;99.90;;;;;;4979168;28;20057;-81
2023/05/01 04:59:19;;;;;;;6.03;5.43;;;9.00;99.90;;;;;;4979036;28;20039;-83
2023/05/01 05:01:45;;;;;;;6.38;5.72;;;9.00;99.90;;;;;;4973899;28;20031;-83
2023/05/01 05:04:11;;;;;;;6.82;5.75;;;9.00;99.90;;;;;;4970111;28;20029;-84
2023/05/01 05:06:37;;;;;;;6.63;5.95;;;9.00;99.90;;;;;;4971276;28;20047;-83
2023/05/01 05:09:03;;;;;;;7.97;6.20;;;9.10;99.90;;;;;;4960302;28;20098;-83
2023/05/01 05:11:29;;;;;;;9.13;7.05;;;9.20;99.90;;;;;;4941755;28;20393;-84
2023/05/01 05:13:54;;;;;;;7.38;6.68;;;9.20;99.90;;;;;;4968013;28;20106;-82
2023/05/01 05:16:20;;;;;;;7.78;6.90;;;9.20;99.90;;;;;;4977380;28;20034;-83
2023/05/01 05:18:46;;;;;;;6.95;6.13;;;9.30;99.90;;;;;;4958030;28;20803;-81
2023/05/01 05:21:12;;;;;;;7.30;6.55;;;9.30;99.90;;;;;;4969562;28;20031;-81
2023/05/01 05:23:38;;;;;;;6.32;5.68;;;9.30;99.90;;;;;;4963002;28;20023;-81
2023/05/01 05:26:04;;;;;;;7.28;6.55;;;9.30;99.90;;;;;;4970182;28;20105;-83
2023/05/01 05:28:30;;;;;;;7.70;6.65;;;9.30;99.90;;;;;;4959806;28;20499;-81
2023/05/01 05:30:56;;;;;;;7.25;6.35;;;9.30;99.90;;;;;;4947671;28;20043;-83
2023/05/01 05:33:23;;;;;;;14.02;7.28;;;9.40;99.90;;;;;;4984673;28;20054;-81
2023/05/01 05:35:50;;;;;;;7.63;6.63;;;9.50;99.90;;;;;;4966666;28;20026;-82
2023/05/01 05:38:16;;;;;;;7.63;6.83;;;9.60;99.90;;;;;;4976587;28;20165;-81
2023/05/01 05:40:42;;;;;;;7.63;6.63;;;9.60;99.90;;;;;;4974604;28;20031;-81
2023/05/01 05:43:09;;;;;;;9.50;6.97;;;9.70;99.90;;;;;;4981591;28;20023;-81
2023/05/01 05:45:35;;;;;;;8.05;7.00;;;9.70;99.90;;;;;;4982699;28;20034;-81
2023/05/01 05:48:02;;;;;;;7.57;6.78;;;9.80;99.90;;;;;;4988479;28;20115;-82
2023/05/01 05:50:28;;;;;;;7.90;6.03;;;9.70;99.90;;;;;;4978149;28;20042;-82
2023/05/01 05:52:54;;;;;;;8.32;6.88;;;9.70;99.90;;;;;;4972465;28;20047;-82
2023/05/01 05:55:20;;;;;;;11.75;7.10;;;9.80;99.90;;;;;;4961633;28;20023;-83
2023/05/01 05:57:46;;;;;;;9.40;6.93;;;9.90;99.90;;;;;;4963396;28;20118;-80
2023/05/01 06:00:13;;;;;;;9.15;7.13;;;10.00;99.90;;;;;;4961970;28;20504;-80
2023/05/01 06:02:39;;;;;;;7.22;6.53;;;10.10;99.90;;;;;;4969092;28;20074;-80
2023/05/01 06:05:05;;;;;;;11.10;7.30;;;10.10;99.90;;;;;;4962808;28;20043;-80
2023/05/01 06:07:31;;;;;;;10.20;6.70;;;10.10;99.90;;;;;;4974656;28;20034;-82
2023/05/01 06:10:03;;;;;;;8.50;6.07;;;10.10;99.90;;;;;;4968099;28;20031;-83
2023/05/01 06:12:30;;;;;;;9.80;6.68;;;10.10;99.90;;;;;;4963633;28;20026;-82
2023/05/01 06:14:57;;;;;;;7.97;6.40;;;10.20;99.90;;;;;;4970963;28;20095;-83
2023/05/01 06:17:23;;;;;;;7.90;6.63;;;10.20;99.90;;;;;;4955230;28;20029;-82
2023/05/01 06:19:51;;;;;;;11.80;6.28;;;10.40;99.90;;;;;;4957290;28;20273;-82
2023/05/01 06:22:20;;;;;;;7.88;5.85;;;10.40;99.70;;;;;;4971978;28;20023;-82
2023/05/01 06:24:46;;;;;;;8.77;6.97;;;10.40;99.60;;;;;;4964501;28;20043;-82
2023/05/01 06:27:12;;;;;;;6.57;5.55;;;10.50;99.40;;;;;;4970536;28;20447;-81
2023/05/01 06:29:38;;;;;;;8.00;6.38;;;10.60;99.00;;;;;;4971899;28;20465;-81
2023/05/01 06:32:04;;;;;;;8.30;6.70;;;10.50;99.00;;;;;;4974750;28;20034;-81
2023/05/01 06:34:30;;;;;;;10.35;5.80;;;10.60;98.90;;;;;;4973972;28;20015;-81
2023/05/01 06:36:56;;;;;;;9.40;6.28;;;10.60;98.70;;;;;;4976087;28;20369;-81
2023/05/01 06:39:22;;;;;;;7.47;6.03;;;10.70;98.60;;;;;;4973576;28;20025;-82
2023/05/01 06:41:48;;;;;;;6.55;5.75;;;10.70;98.30;;;;;;4970924;28;20054;-82
2023/05/01 06:44:15;;;;;;;6.88;5.97;;;10.80;98.10;;;;;;4961555;28;20037;-81
2023/05/01 06:46:41;;;;;;;11.40;6.10;;;10.90;97.60;;;;;;4962581;28;20056;-82
2023/05/01 06:49:07;;;;;;;7.00;5.93;;;11.00;97.30;;;;;;4971631;28;20487;-81
2023/05/01 06:51:32;;;;;;;8.52;6.43;;;11.10;97.00;;;;;;4973228;28;20042;-80
2023/05/01 06:53:58;;;;;;;8.63;6.18;;;11.20;97.00;;;;;;4943775;28;20559;-82
2023/05/01 06:56:24;;;;;;;8.40;5.75;;;11.30;96.60;;;;;;4951102;28;20027;-82
2023/05/01 06:58:50;;;;;;;6.40;5.68;;;11.50;96.50;;;;;;4958095;28;20077;-81
2023/05/01 07:01:16;;;;;;;9.70;5.97;;;11.60;95.80;;;;;;4969867;28;20027;-81
2023/05/01 07:03:42;;;;;;;7.10;5.47;;;11.60;95.20;;;;;;4938310;28;20031;-80
2023/05/01 07:06:08;;;;;;;10.00;5.20;;;11.60;94.60;;;;;;4971070;28;20519;-79
2023/05/01 07:08:34;;;;;;;9.32;5.38;;;11.60;94.90;;;;;;4960760;28;20022;-82
2023/05/01 07:11:02;;;;;;;9.45;6.38;;;11.70;94.90;;;;;;4945611;28;20055;-80
2023/05/01 07:13:28;;;;;;;8.18;6.15;;;11.80;94.80;;;;;;4959817;28;20441;-80
2023/05/01 07:15:53;;;;;;;8.85;5.57;;;11.90;94.30;;;;;;4978310;28;20040;-80
2023/05/01 07:18:19;;;;;;;6.78;5.78;;;12.00;93.90;;;;;;4964526;28;20033;-83
2023/05/01 07:20:46;;;;;;;7.63;5.55;;;12.20;93.60;;;;;;4961470;28;20023;-82
2023/05/01 07:23:11;;;;;;;7.78;6.32;;;12.40;93.20;;;;;;4953615;28;20484;-80
2023/05/01 07:25:40;;;;;;;6.80;5.68;;;12.60;93.00;;;;;;4967404;28;20073;-82
2023/05/01 07:28:06;;;;;;;6.35;5.05;;;12.70;92.50;;;;;;4976378;28;20030;-80
2023/05/01 07:30:34;;;;;;;6.75;5.45;;;12.60;92.00;;;;;;4965767;28;20038;-83
2023/05/01 07:33:01;;;;;;;8.27;5.45;;;12.40;92.20;;;;;;4954266;28;20082;-82
2023/05/01 07:35:27;;;;;;;7.40;6.55;;;12.40;92.30;;;;;;4972242;28;20027;-80
2023/05/01 07:37:53;;;;;;;8.00;5.57;;;12.50;92.20;;;;;;4971353;28;20025;-80
2023/05/01 07:40:19;;;;;;;9.18;6.35;;;12.60;92.00;;;;;;4971644;28;20139;-81
2023/05/01 07:42:45;;;;;;;7.57;5.20;;;12.90;91.80;;;;;;4960325;28;20522;-82
2023/05/01 07:45:11;;;;;;;9.30;6.20;;;13.10;91.10;;;;;;4973764;28;20099;-81
2023/05/01 07:47:37;;;;;;;7.43;5.18;;;13.30;90.40;;;;;;4961633;28;20047;-82
2023/05/01 07:50:03;;;;;;;7.45;6.15;;;13.60;90.10;;;;;;4970847;28;20504;-81
2023/05/01 07:52:29;;;;;;;10.45;6.05;;;13.80;87.50;;;;;;4976650;28;20023;-82
2023/05/01 07:54:55;;;;;;;6.85;5.60;;;13.90;86.50;;;;;;4970609;28;20034;-83
2023/05/01 07:57:23;;;;;;;7.65;5.40;;;14.00;85.70;;;;;;4974009;28;20392;-80
2023/05/01 07:59:55;;;;;;;13.07;6.50;;;14.20;85.10;;;;;;4971986;28;20106;-81
2023/05/01 08:02:22;;;;;;;11.07;6.95;;;14.40;83.90;;;;;;4971627;28;20106;-81
2023/05/01 08:04:48;;;;;;;10.95;5.90;;;14.50;83.70;;;;;;4968711;28;20027;-84
2023/05/01 08:07:14;;;;;;;6.90;4.88;;;14.50;82.00;;;;;;4972480;28;20101;-81
2023/05/01 08:09:40;;;;;;;8.23;5.93;;;14.30;80.50;;;;;;4976024;28;20031;-82
2023/05/01 08:12:06;;;;;;;8.23;5.35;;;14.00;80.30;;;;;;4964723;28;20502;-81
2023/05/01 08:14:32;;;;;;;11.18;5.55;;;13.80;80.30;;;;;;4972725;28;20027;-81
2023/05/01 08:16:58;;;;;;;7.18;6.30;;;13.70;81.30;;;;;;4988179;28;20504;-82
2023/05/01 08:19:25;;;;;;;10.25;6.65;;;13.60;82.50;;;;;;4987989;28;20025;-83
2023/05/01 08:21:51;;;;;;;9.13;6.28;;;13.60;82.50;;;;;;4960242;28;20432;-83
2023/05/01 08:24:18;;;;;;;6.55;5.32;;;13.40;81.60;;;;;;4985434;28;20027;-82
2023/05/01 08:26:44;;;;;;;6.88;5.45;;;13.10;83.00;;;;;;4970304;28;20019;-82
2023/05/01 08:29:10;;;;;;;7.43;5.50;;;13.10;82.80;;;;;;4972492;28;20034;-80
2023/05/01 08:31:38;;;;;;;7.10;6.03;;;12.90;83.50;;;;;;4947380;28;20393;-80
2023/05/01 08:34:04;;;;;;;8.48;5.32;;;12.90;84.30;;;;;;4961008;28;20029;-80
2023/05/01 08:36:31;;;;;;;13.77;6.65;;;12.90;84.50;;;;;;4972051;28;20031;-82
2023/05/01 08:38:57;;;;;;;7.45;5.65;;;13.00;84.40;;;;;;4961785;28;20035;-80
2023/05/01 08:41:24;;;;;;;7.40;4.93;;;12.90;84.00;;;;;;4969079;28;20548;-81
2023/05/01 08:43:50;;;;;;;5.80;4.50;;;12.90;82.90;;;;;;4974574;28;20087;-82
2023/05/01 08:46:53;;;;;;;5.75;4.22;;;12.80;82.40;;;;;;4983934;28;20042;-81
2023/05/01 08:49:22;;;;;;;8.65;4.18;;;12.60;82.80;;;;;;4930406;28;20027;-79
2023/05/01 08:51:51;;;;;;;5.20;4.65;;;12.40;83.20;;;;;;4975677;28;20042;-82
2023/05/01 08:54:19;;;;;;;7.20;5.13;;;12.20;83.90;;;;;;4973809;28;20125;-81
2023/05/01 08:56:46;;;;;;;7.00;4.82;;;12.20;84.90;;;;;;4965407;28;20019;-79
2023/05/01 08:59:13;;;;;;;9.13;4.90;;;12.30;85.20;;;;;;4982487;28;20034;-82
2023/05/01 09:01:41;;;;;;;8.80;5.13;;;12.50;84.40;;;;;;4975973;28;20546;-81
2023/05/01 09:04:10;;;;;;;7.57;5.07;;;12.60;83.90;;;;;;4976745;28;20031;-81
2023/05/01 09:06:36;;;;;;;7.47;4.88;;;12.80;83.60;;;;;;4972725;28;20054;-82
2023/05/01 09:09:02;;;;;;;6.72;4.40;;;12.80;83.60;;;;;;4971248;28;20062;-85
2023/05/01 09:11:29;;;;;;;9.88;4.78;;;12.90;83.20;;;;;;4952408;28;20027;-80
2023/05/01 09:13:56;;;;;;;9.10;5.20;;;13.00;82.90;;;;;;4957119;28;20492;-83
2023/05/01 09:16:22;;;;;;;14.32;5.00;;;13.10;82.20;;;;;;4953961;28;20088;-81
2023/05/01 09:18:48;;;;;;;5.63;5.07;;;13.20;81.10;;;;;;4963629;28;20026;-79
2023/05/01 09:21:14;;;;;;;9.20;4.45;;;13.20;81.50;;;;;;4977141;28;20015;-83
2023/05/01 09:23:40;;;;;;;5.07;4.38;;;13.20;80.00;;;;;;4973844;28;20038;-80
2023/05/01 09:26:07;;;;;;;7.63;4.15;;;13.20;79.60;;;;;;4975303;28;20050;-85
2023/05/01 09:28:44;;;;;;;6.00;4.33;;;13.20;79.40;;;;;;4971963;28;20093;-81
2023/05/01 09:31:27;;;;;;;9.10;4.90;;;13.30;79.70;;;;;;4957694;28;20864;-80
2023/05/01 09:34:01;;;;;;;8.75;4.43;;;13.40;79.50;;;;;;4973666;28;20103;-82
2023/05/01 09:36:31;;;;;;;9.63;4.63;;;13.30;78.60;;;;;;4966019;28;20027;-83
2023/05/01 09:38:59;;;;;;;6.95;4.47;;;13.20;79.30;;;;;;4959852;28;20130;-84
2023/05/01 09:41:25;;;;;;;6.47;4.15;;;13.20;79.90;;;;;;4965151;28;20425;-85
2023/05/01 09:43:53;;;;;;;18.40;12.30;;;13.50;79.50;;;;;;4972072;28;20027;-85
2023/05/01 09:46:21;;;;;;;7.38;5.32;;;13.90;79.00;;;;;;4952613;28;20025;-82
2023/05/01 09:48:55;;;;;;;9.25;5.13;;;14.20;77.60;;;;;;4975276;28;20033;-84
2023/05/01 09:51:25;;;;;;;9.20;7.93;;;14.30;77.20;;;;;;4986368;28;20444;-89
2023/05/01 09:53:53;;;;;;;10.68;5.35;;;14.20;76.30;;;;;;4979169;28;20106;-89
2023/05/01 09:56:23;;;;;;;8.15;4.32;;;14.10;77.10;;;;;;4958719;28;20031;-90
2023/05/01 09:58:52;;;;;;;5.93;3.55;;;14.00;76.70;;;;;;4968402;28;20038;-86
2023/05/01 10:01:37;;;;;;;7.40;4.28;;;13.90;76.60;;;;;;4955954;28;20037;-86
2023/05/01 10:04:03;;;;;;;5.97;4.60;;;13.70;77.10;;;;;;4975376;28;20027;-86
2023/05/01 10:06:29;;;;;;;5.78;4.40;;;13.60;77.10;;;;;;4967634;28;20101;-85
2023/05/01 10:08:55;;;;;;;9.63;4.75;;;13.40;76.50;;;;;;4974322;28;20023;-78
2023/05/01 10:11:22;;;;;;;9.80;4.43;;;13.20;76.50;;;;;;4960378;28;20038;-80
2023/05/01 10:14:08;;;;;;;7.03;4.32;;;12.90;77.20;;;;;;4976516;28;20522;-78
2023/05/01 10:16:35;;;;;;;6.00;3.90;;;12.80;77.90;;;;;;4967627;28;20099;-80
2023/05/01 10:19:02;;;;;;;;;;;12.50;78.40;;;;;;4967932;28;20069;-79
2023/05/01 10:21:29;;;;;;;4.18;3.30;;;12.20;79.00;;;;;;4962704;28;20351;-79
2023/05/01 10:23:55;;;;;;;6.65;3.35;;;12.10;80.10;;;;;;4962861;28;20039;-79
2023/05/01 10:26:22;;;;;;;8.90;4.60;;;12.00;79.90;;;;;;4963446;28;20031;-80
2023/05/01 10:28:48;;;;;;;5.00;3.88;;;11.80;81.10;;;;;;4970634;28;20038;-81
2023/05/01 10:31:15;;;;;;;6.43;3.75;;;11.70;81.80;;;;;;4967451;28;20462;-78
2023/05/01 10:33:42;;;;;;;7.27;3.77;;;11.60;82.80;;;;;;4969585;28;20063;-80
2023/05/01 10:36:36;;;;;;;13.77;3.88;;;11.40;83.50;;;;;;4972930;28;20086;-80
2023/05/01 10:39:03;;;;;;;5.15;3.42;;;11.10;84.80;;;;;;4965328;28;20039;-84
2023/05/01 10:42:05;;;;;;;4.05;3.40;;;11.00;86.00;;;;;;4976261;28;20119;-83
2023/05/01 10:44:32;;;;;;;7.97;3.83;;;10.90;86.40;;;;;;4945177;28;20034;-81
2023/05/01 10:46:58;;;;;;;4.35;3.55;;;11.00;86.80;;;;;;4962392;28;20030;-81
2023/05/01 10:49:24;;;;;;;6.20;4.05;;;11.00;87.00;;;;;;4961495;28;20019;-78
2023/05/01 10:51:59;;;;;;;5.45;4.03;;;11.10;87.20;;;;;;4975678;28;20035;-81
2023/05/01 10:54:26;;;;;;;4.03;2.90;;;11.10;87.20;;;;;;4980472;28;20029;-84
2023/05/01 10:56:54;;;;;;;5.10;2.80;;;10.90;86.30;;;;;;4986344;28;20031;-84
2023/05/01 10:59:20;;;;;;;6.22;3.03;;;10.80;86.80;;;;;;4983099;28;20038;-82
2023/05/01 11:01:50;;;;;;;3.97;2.88;;;10.50;87.20;;;;;;4973288;28;20488;-80
2023/05/01 11:04:26;;;;;;;5.82;2.60;;;10.20;88.40;;;;;;4971707;28;20113;-82
2023/05/01 11:07:00;;;;;;;4.35;2.95;;;9.90;89.50;;;;;;4970282;28;20497;-81
2023/05/01 11:09:39;;;;;;;3.10;2.00;;;9.90;90.10;;;;;;4960600;28;20091;-82
2023/05/01 11:12:07;;;;;;;5.93;2.80;;;9.90;90.00;;;;;;4962459;28;20603;-80
2023/05/01 11:15:06;;;;;;;2.97;2.33;;;9.80;90.50;;;;;;4966538;28;20058;-80
2023/05/01 11:17:41;;;;;;;7.68;2.50;;;9.80;90.60;;;;;;4971596;28;20391;-82
2023/05/01 11:20:25;;;;;;;7.63;2.65;;;9.80;90.40;;;;;;4965997;28;20021;-81
2023/05/01 11:22:55;;;;;;;3.85;2.75;;;9.80;90.50;;;;;;4976079;28;20023;-79
2023/05/01 11:25:26;;;;;;;5.25;2.33;;;9.60;90.60;;;;;;4977909;28;20027;-84
2023/05/01 11:28:01;;;;;;;5.63;2.30;;;9.30;90.80;;;;;;4983209;28;20025;-87
2023/05/01 11:30:37;;;;;;;3.45;2.53;;;9.10;91.40;;;;;;4997532;28;20075;-86
2023/05/01 11:33:04;;;;;;;6.38;3.10;;;8.90;91.80;;;;;;4967619;28;20015;-84
2023/05/01 11:35:31;;;;;;;4.95;2.50;;;8.80;92.40;;;;;;4995502;28;20082;-87
2023/05/01 11:37:57;;;;;;;4.53;2.42;;;8.70;92.50;;;;;;4987687;28;20451;-89
2023/05/01 11:40:32;;;;;;;4.80;3.00;;;8.60;92.80;;;;;;4991457;28;20085;-88
2023/05/01 11:43:05;;;;;;;3.60;2.45;;;8.50;93.10;;;;;;4980472;28;20014;-87
2023/05/01 11:45:33;;;;;;;5.80;2.53;;;8.30;93.60;;;;;;4953476;28;20086;-85
2023/05/01 11:47:59;;;;;;;3.60;2.17;;;8.20;93.70;;;;;;4977507;28;20099;-85
2023/05/01 11:50:38;;;;;;;3.17;2.15;;;8.10;93.80;;;;;;4980289;28;20035;-85
2023/05/01 11:53:11;;;;;;;3.05;2.22;;;8.00;94.10;;;;;;4966674;28;20500;-86
2023/05/01 11:55:38;;;;;;;4.32;2.50;;;8.00;94.30;;;;;;4969203;29;20062;-85
2023/05/01 11:58:05;;;;;;;3.13;1.95;;;8.00;94.50;;;;;;4962815;28;20043;-81
2023/05/01 12:00:38;;;;;;;4.30;2.15;;;7.90;94.70;;;;;;4949800;28;20083;-83
2023/05/01 12:03:12;;;;;;;1.88;1.48;;;7.80;94.90;;;;;;4952336;28;20070;-83
2023/05/01 12:05:41;;;;;;;3.38;1.80;;;7.80;94.90;;;;;;4954184;28;20035;-81
2023/05/01 12:08:18;;;;;;;3.13;2.28;;;7.70;94.90;;;;;;4929029;29;20445;-80
2023/05/01 12:10:45;;;;;;;2.35;1.90;;;7.70;95.50;;;;;;4955768;28;20055;-81
2023/05/01 12:13:13;;;;;;;6.15;4.78;;;7.70;95.60;;;;;;4945956;28;20028;-80
2023/05/01 12:15:42;;;;;;;;;;;7.70;95.90;;;;;;4954691;28;20031;-80
2023/05/01 12:18:08;;;;;;;2.72;1.88;;;7.70;95.60;;;;;;4960581;28;20497;-77
2023/05/01 12:20:35;;;;;;;4.50;1.73;;;7.60;95.90;;;;;;4950921;28;20110;-78
2023/05/01 12:23:04;;;;;;;2.58;1.98;;;7.50;96.20;;;;;;4934977;28;20393;-80
2023/05/01 12:25:32;;;;;;;2.67;2.00;;;7.50;96.10;;;;;;4953561;28;20038;-82
2023/05/01 12:28:00;;;;;;;3.97;2.15;;;7.40;96.10;;;;;;4957250;28;20026;-81
2023/05/01 12:30:28;;;;;;;3.13;2.15;;;7.30;96.00;;;;;;4969019;28;20086;-82
2023/05/01 12:32:56;;;;;;;3.25;2.35;;;7.10;96.30;;;;;;4978572;28;20031;-83
2023/05/01 12:35:22;;;;;;;3.22;2.53;;;7.00;96.70;;;;;;4969296;28;20023;-78
2023/05/01 12:37:48;;;;;;;3.45;3.00;;;7.00;97.10;;;;;;4954341;28;20097;-80
2023/05/01 12:40:14;;;;;;;4.00;2.88;;;7.00;96.90;;;;;;4965126;28;20473;-82
2023/05/01 12:42:41;;;;;;;4.00;3.13;;;7.00;97.20;;;;;;4968473;28;20046;-81
2023/05/01 12:45:09;;;;;;;3.53;2.65;;;7.00;97.30;;;;;;4963786;28;20027;-81
2023/05/01 12:47:38;;;;;;;6.45;2.90;;;7.00;97.60;;;;;;4961836;28;20077;-80
2023/05/01 12:50:04;;;;;;;3.90;3.45;;;7.00;97.60;;;;;;4972489;28;20366;-82
2023/05/01 12:52:31;;;;;;;4.25;2.90;;;7.00;97.80;;;;;;4973981;28;20081;-78
2023/05/01 12:55:05;;;;;;;4.40;2.80;;;7.10;97.60;;;;;;4961696;28;20035;-80
2023/05/01 12:57:31;;;;;;;3.25;2.88;;;7.00;97.60;;;;;;4962073;28;20026;-81
2023/05/01 13:00:06;;;;;;;6.55;4.57;;;7.00;97.90;;;;;;4962182;28;20555;-80